This is the latest recevied weather packets stored in our database for station/object DF7ER-12. If no packets are shown the sender has not sent any weather packets the latest 10 day(s).
| Time | Temp. | Humidity | Pressure | Rain* | Wind** | Luminosity | Snow |
|---|---|---|---|---|---|---|---|
| 1787943704 | 25° C | 91% | 997.7 hPa | - | - | - | - |
| 1787943404 | 25.56° C | 90% | 997.7 hPa | - | - | - | - |
| 1787943104 | 25° C | 91% | 997.6 hPa | - | - | - | - |
| 1787942804 | 25.56° C | 91% | 997.6 hPa | - | - | - | - |
| 1787942504 | 25° C | 94% | 997.5 hPa | - | - | - | - |
| 1787942204 | 25.56° C | 92% | 997.5 hPa | - | - | - | - |
| 1787941904 | 25.56° C | 91% | 997.4 hPa | - | - | - | - |
| 1787941604 | 25.56° C | 91% | 997.3 hPa | - | - | - | - |
| 1787941304 | 25.56° C | 92% | 997.4 hPa | - | - | - | - |
| 1787941004 | 25.56° C | 93% | 997.5 hPa | - | - | - | - |
| 1787940704 | 25.56° C | 92% | 997.6 hPa | - | - | - | - |
| 1787940404 | 26.11° C | 92% | 997.5 hPa | - | - | - | - |
| 1787940104 | 26.11° C | 92% | 997.4 hPa | - | - | - | - |
| 1787939804 | 26.11° C | 93% | 997.3 hPa | - | - | - | - |
| 1787939504 | 26.11° C | 94% | 997.4 hPa | - | - | - | - |
| 1787939204 | 25.56° C | 96% | 997.2 hPa | - | - | - | - |
| 1787938904 | 26.11° C | 93% | 997.3 hPa | - | - | - | - |
| 1787938604 | 26.11° C | 93% | 997.2 hPa | - | - | - | - |
| 1787938304 | 26.11° C | 93% | 997.1 hPa | - | - | - | - |
| 1787938004 | 25.56° C | 95% | 997 hPa | - | - | - | - |
| 1787937704 | 26.11° C | 95% | 997 hPa | - | - | - | - |
| 1787937404 | 25.56° C | 97% | 997 hPa | - | - | - | - |
| 1787937104 | 26.11° C | 94% | 997.3 hPa | - | - | - | - |
| 1787936804 | 26.11° C | 94% | 997.4 hPa | - | - | - | - |
| 1787936504 | 26.11° C | 92% | 997.4 hPa | - | - | - | - |
* Rain since midnight (hover to see other rain measurements)
** Current wind speed in m/s (hover to see current wind gust speed)